sensor_id;sensor_type;location;lat;lon;timestamp;P1;durP1;ratioP1;P2;durP2;ratioP2
12072;SDS011;6098;49.004;8.372;2023-06-22T00:02:51;6.22;;;4.59;;
12072;SDS011;6098;49.004;8.372;2023-06-22T00:17:45;6.61;;;4.74;;
12072;SDS011;6098;49.004;8.372;2023-06-22T00:32:37;5.79;;;5.10;;
12072;SDS011;6098;49.004;8.372;2023-06-22T00:47:29;10.41;;;6.41;;
12072;SDS011;6098;49.004;8.372;2023-06-22T01:02:20;10.14;;;6.84;;
12072;SDS011;6098;49.004;8.372;2023-06-22T01:17:13;9.52;;;7.47;;
12072;SDS011;6098;49.004;8.372;2023-06-22T01:32:05;10.74;;;7.68;;
12072;SDS011;6098;49.004;8.372;2023-06-22T01:47:06;8.50;;;7.35;;
12072;SDS011;6098;49.004;8.372;2023-06-22T02:02:02;10.63;;;8.13;;
12072;SDS011;6098;49.004;8.372;2023-06-22T02:16:54;9.23;;;7.75;;
12072;SDS011;6098;49.004;8.372;2023-06-22T02:31:49;9.77;;;8.14;;
12072;SDS011;6098;49.004;8.372;2023-06-22T02:46:41;10.34;;;7.96;;
12072;SDS011;6098;49.004;8.372;2023-06-22T03:01:38;8.82;;;7.47;;
12072;SDS011;6098;49.004;8.372;2023-06-22T03:16:31;8.76;;;7.80;;
12072;SDS011;6098;49.004;8.372;2023-06-22T03:31:23;9.84;;;7.96;;
12072;SDS011;6098;49.004;8.372;2023-06-22T03:46:22;11.11;;;8.10;;
12072;SDS011;6098;49.004;8.372;2023-06-22T04:01:13;9.56;;;8.04;;
12072;SDS011;6098;49.004;8.372;2023-06-22T04:16:07;10.49;;;7.78;;
12072;SDS011;6098;49.004;8.372;2023-06-22T04:30:59;14.07;;;8.34;;
12072;SDS011;6098;49.004;8.372;2023-06-22T04:45:53;11.90;;;8.39;;
12072;SDS011;6098;49.004;8.372;2023-06-22T05:00:45;12.75;;;8.57;;
12072;SDS011;6098;49.004;8.372;2023-06-22T05:15:37;11.54;;;8.49;;
12072;SDS011;6098;49.004;8.372;2023-06-22T05:30:32;12.15;;;8.46;;
12072;SDS011;6098;49.004;8.372;2023-06-22T05:45:25;10.94;;;8.14;;
12072;SDS011;6098;49.004;8.372;2023-06-22T06:00:19;12.20;;;8.30;;
12072;SDS011;6098;49.004;8.372;2023-06-22T06:15:13;13.07;;;7.82;;
12072;SDS011;6098;49.004;8.372;2023-06-22T06:30:07;9.55;;;8.21;;
12072;SDS011;6098;49.004;8.372;2023-06-22T06:45:02;11.16;;;7.74;;
12072;SDS011;6098;49.004;8.372;2023-06-22T06:59:57;11.74;;;7.84;;
12072;SDS011;6098;49.004;8.372;2023-06-22T07:14:51;9.89;;;7.79;;
12072;SDS011;6098;49.004;8.372;2023-06-22T07:29:44;11.55;;;7.60;;
12072;SDS011;6098;49.004;8.372;2023-06-22T07:44:38;9.38;;;6.97;;
12072;SDS011;6098;49.004;8.372;2023-06-22T07:59:31;8.07;;;6.36;;
12072;SDS011;6098;49.004;8.372;2023-06-22T08:14:26;12.02;;;6.23;;
12072;SDS011;6098;49.004;8.372;2023-06-22T08:29:29;10.13;;;5.54;;
12072;SDS011;6098;49.004;8.372;2023-06-22T08:44:26;9.71;;;5.90;;
12072;SDS011;6098;49.004;8.372;2023-06-22T08:59:30;7.77;;;6.16;;
12072;SDS011;6098;49.004;8.372;2023-06-22T09:14:23;8.83;;;5.77;;
12072;SDS011;6098;49.004;8.372;2023-06-22T09:29:17;10.62;;;6.11;;
12072;SDS011;6098;49.004;8.372;2023-06-22T09:44:11;8.10;;;6.19;;
12072;SDS011;6098;49.004;8.372;2023-06-22T09:59:06;9.79;;;6.40;;
12072;SDS011;6098;49.004;8.372;2023-06-22T10:13:58;9.49;;;6.28;;
12072;SDS011;6098;49.004;8.372;2023-06-22T10:28:51;10.48;;;6.72;;
12072;SDS011;6098;49.004;8.372;2023-06-22T10:43:47;11.52;;;6.53;;
12072;SDS011;6098;49.004;8.372;2023-06-22T10:58:45;9.86;;;6.69;;
12072;SDS011;6098;49.004;8.372;2023-06-22T11:13:39;12.34;;;6.96;;
12072;SDS011;6098;49.004;8.372;2023-06-22T11:28:35;11.11;;;6.14;;
12072;SDS011;6098;49.004;8.372;2023-06-22T11:43:31;9.01;;;6.30;;
12072;SDS011;6098;49.004;8.372;2023-06-22T11:58:25;10.00;;;6.36;;
12072;SDS011;6098;49.004;8.372;2023-06-22T12:13:19;8.86;;;6.16;;
12072;SDS011;6098;49.004;8.372;2023-06-22T12:28:14;9.87;;;6.84;;
12072;SDS011;6098;49.004;8.372;2023-06-22T12:43:07;11.31;;;6.76;;
12072;SDS011;6098;49.004;8.372;2023-06-22T12:57:59;8.99;;;6.43;;
12072;SDS011;6098;49.004;8.372;2023-06-22T13:12:53;10.78;;;7.14;;
12072;SDS011;6098;49.004;8.372;2023-06-22T13:27:48;12.09;;;7.29;;
12072;SDS011;6098;49.004;8.372;2023-06-22T13:44:07;9.46;;;6.89;;
12072;SDS011;6098;49.004;8.372;2023-06-22T14:00:21;10.22;;;6.93;;
12072;SDS011;6098;49.004;8.372;2023-06-22T14:15:23;10.63;;;7.70;;
12072;SDS011;6098;49.004;8.372;2023-06-22T14:30:15;10.19;;;6.83;;
12072;SDS011;6098;49.004;8.372;2023-06-22T14:45:10;12.82;;;6.98;;
12072;SDS011;6098;49.004;8.372;2023-06-22T15:00:07;12.52;;;6.96;;
12072;SDS011;6098;49.004;8.372;2023-06-22T15:15:06;10.87;;;6.99;;
12072;SDS011;6098;49.004;8.372;2023-06-22T15:30:04;8.80;;;6.04;;
12072;SDS011;6098;49.004;8.372;2023-06-22T15:45:02;12.19;;;6.33;;
12072;SDS011;6098;49.004;8.372;2023-06-22T15:59:56;9.87;;;6.43;;
12072;SDS011;6098;49.004;8.372;2023-06-22T16:14:49;13.17;;;6.97;;
12072;SDS011;6098;49.004;8.372;2023-06-22T16:29:40;11.16;;;6.73;;
12072;SDS011;6098;49.004;8.372;2023-06-22T16:44:31;12.90;;;6.46;;
12072;SDS011;6098;49.004;8.372;2023-06-22T16:59:22;11.64;;;6.03;;
12072;SDS011;6098;49.004;8.372;2023-06-22T17:14:14;12.88;;;5.77;;
12072;SDS011;6098;49.004;8.372;2023-06-22T17:29:08;8.91;;;4.51;;
12072;SDS011;6098;49.004;8.372;2023-06-22T17:44:03;7.30;;;3.27;;
12072;SDS011;6098;49.004;8.372;2023-06-22T17:58:57;5.59;;;2.97;;
12072;SDS011;6098;49.004;8.372;2023-06-22T18:13:49;6.58;;;3.50;;
12072;SDS011;6098;49.004;8.372;2023-06-22T18:28:40;8.28;;;3.68;;
12072;SDS011;6098;49.004;8.372;2023-06-22T18:43:37;6.63;;;3.50;;
12072;SDS011;6098;49.004;8.372;2023-06-22T18:58:28;5.99;;;3.56;;
12072;SDS011;6098;49.004;8.372;2023-06-22T19:28:22;3.22;;;2.50;;
12072;SDS011;6098;49.004;8.372;2023-06-22T19:43:16;2.19;;;1.64;;
12072;SDS011;6098;49.004;8.372;2023-06-22T19:58:24;1.54;;;1.21;;
12072;SDS011;6098;49.004;8.372;2023-06-22T20:13:19;2.98;;;1.07;;
12072;SDS011;6098;49.004;8.372;2023-06-22T20:28:20;3.65;;;1.40;;
12072;SDS011;6098;49.004;8.372;2023-06-22T20:43:24;3.59;;;1.50;;
12072;SDS011;6098;49.004;8.372;2023-06-22T20:58:16;9.23;;;5.07;;
12072;SDS011;6098;49.004;8.372;2023-06-22T21:13:22;5.14;;;1.83;;
12072;SDS011;6098;49.004;8.372;2023-06-22T21:28:14;4.93;;;2.03;;
12072;SDS011;6098;49.004;8.372;2023-06-22T21:43:09;3.41;;;2.12;;
12072;SDS011;6098;49.004;8.372;2023-06-22T21:58:02;5.24;;;3.55;;
12072;SDS011;6098;49.004;8.372;2023-06-22T22:12:55;4.49;;;2.84;;
12072;SDS011;6098;49.004;8.372;2023-06-22T22:27:48;7.32;;;4.15;;
12072;SDS011;6098;49.004;8.372;2023-06-22T22:42:40;5.81;;;3.33;;
12072;SDS011;6098;49.004;8.372;2023-06-22T22:57:33;9.05;;;6.79;;
12072;SDS011;6098;49.004;8.372;2023-06-22T23:12:27;5.97;;;4.61;;
12072;SDS011;6098;49.004;8.372;2023-06-22T23:27:20;4.68;;;4.26;;
12072;SDS011;6098;49.004;8.372;2023-06-22T23:42:14;4.84;;;4.32;;
12072;SDS011;6098;49.004;8.372;2023-06-22T23:57:06;4.26;;;3.90;;
